createdAt,value
2018-11-22T00:04:26.449Z,68.43
2018-11-22T00:09:49.046Z,61.77
2018-11-22T00:14:52.597Z,67.27
2018-11-22T00:19:56.449Z,69.53
2018-11-22T00:25:00.659Z,68.20
2018-11-22T00:30:16.044Z,69.60
2018-11-22T00:35:20.096Z,69.37
2018-11-22T00:40:25.239Z,73.60
2018-11-22T00:45:47.695Z,73.47
2018-11-22T00:50:51.145Z,68.30
2018-11-22T00:55:54.602Z,68.00
2018-11-22T01:00:58.298Z,76.87
2018-11-22T01:06:01.715Z,65.73
2018-11-22T01:11:05.648Z,63.33
2018-11-22T01:16:09.081Z,65.27
2018-11-22T01:21:12.473Z,62.97
2018-11-22T01:26:16.161Z,61.77
2018-11-22T01:31:38.664Z,64.07
2018-11-22T01:36:42.123Z,60.47
2018-11-22T01:41:45.583Z,60.63
2018-11-22T01:46:48.993Z,65.63
2018-11-22T01:51:52.412Z,61.57
2018-11-22T01:56:55.797Z,64.03
2018-11-22T02:01:59.246Z,61.63
2018-11-22T02:07:02.824Z,63.10
2018-11-22T02:12:25.418Z,65.93
2018-11-22T02:17:28.879Z,59.63
2018-11-22T02:22:32.256Z,66.53
2018-11-22T02:27:35.924Z,60.10
2018-11-22T02:32:39.551Z,62.73
2018-11-22T02:37:43.226Z,61.43
2018-11-22T02:42:47.262Z,61.87
2018-11-22T02:47:50.700Z,70.50
2018-11-22T02:52:54.865Z,72.47
2018-11-22T02:57:58.219Z,59.07
2018-11-22T03:03:21.059Z,57.20
2018-11-22T03:08:24.617Z,65.20
2018-11-22T03:13:27.982Z,66.00
2018-11-22T03:18:31.359Z,64.87
2018-11-22T03:23:34.828Z,54.47
2018-11-22T03:28:38.336Z,59.27
2018-11-22T03:33:41.746Z,61.90
2018-11-22T03:39:05.707Z,66.67
2018-11-22T03:44:09.190Z,54.40
2018-11-22T03:49:12.805Z,60.73
2018-11-22T03:54:35.512Z,61.37
2018-11-22T03:59:38.878Z,55.40
2018-11-22T04:04:42.398Z,57.30
2018-11-22T04:15:10.831Z,61.00
2018-11-22T04:20:33.388Z,57.40
2018-11-22T04:25:36.857Z,59.73
2018-11-22T04:30:40.244Z,57.93
2018-11-22T04:35:43.618Z,58.03
2018-11-22T04:40:47.489Z,59.70
2018-11-22T04:46:09.955Z,57.77
2018-11-22T04:51:13.433Z,55.20
2018-11-22T04:56:16.915Z,58.03
2018-11-22T05:01:20.290Z,61.80
2018-11-22T05:06:23.711Z,53.90
2018-11-22T05:11:46.161Z,55.53
2018-11-22T05:16:49.632Z,52.33
2018-11-22T05:21:53.093Z,56.30
2018-11-22T05:27:15.707Z,56.57
2018-11-22T05:32:19.357Z,54.60
2018-11-22T05:37:22.783Z,55.83
2018-11-22T05:42:26.170Z,58.00
2018-11-22T05:47:29.580Z,56.40
2018-11-22T05:57:42.191Z,54.43
2018-11-22T06:02:45.640Z,57.78
2018-11-22T06:07:49.040Z,56.50
2018-11-22T06:12:53.247Z,52.43
2018-11-22T06:17:57.849Z,66.80
2018-11-22T06:23:01.404Z,59.50
2018-11-22T06:28:23.923Z,58.67
2018-11-22T06:33:27.770Z,53.47
2018-11-22T06:38:31.318Z,62.50
2018-11-22T06:43:34.857Z,65.67
2018-11-22T06:48:38.241Z,57.63
2018-11-22T06:53:41.743Z,59.53
2018-11-22T06:59:05.224Z,58.77
2018-11-22T07:14:36.298Z,59.30
2018-11-22T07:19:59.201Z,53.50
2018-11-22T07:25:02.848Z,64.30
2018-11-22T07:30:48.816Z,116.83
2018-11-22T07:51:25.981Z,53.47
2018-11-22T07:56:29.388Z,50.13
2018-11-22T08:01:51.842Z,50.80
2018-11-22T08:12:26.027Z,51.40
2018-11-22T08:17:45.781Z,41.13
2018-11-22T08:23:08.818Z,44.43
2018-11-22T08:28:15.306Z,42.03
2018-11-22T08:33:38.067Z,40.77
2018-11-22T08:39:00.534Z,39.93
2018-11-22T08:49:28.364Z,41.13
2018-11-22T08:54:37.502Z,42.13
2018-11-22T09:00:00.283Z,33.57
2018-11-22T09:10:45.302Z,30.57
2018-11-22T09:16:07.792Z,37.87
2018-11-22T09:21:11.270Z,29.63
2018-11-22T09:26:16.153Z,35.77
2018-11-22T09:31:18.120Z,38.57
2018-11-22T09:36:40.840Z,30.43
2018-11-22T09:41:44.313Z,32.63
2018-11-22T09:57:45.323Z,24.90
2018-11-22T10:03:15.604Z,24.13
2018-11-22T10:08:38.358Z,27.67
2018-11-22T10:14:01.202Z,23.23
2018-11-22T10:24:19.609Z,26.33
2018-11-22T10:29:42.269Z,26.80
2018-11-22T10:35:06.418Z,28.33
2018-11-22T10:40:16.231Z,27.37
2018-11-22T10:45:21.154Z,26.30
2018-11-22T10:50:37.888Z,27.50
2018-11-22T10:55:42.925Z,27.80
2018-11-22T11:01:05.375Z,23.43
2018-11-22T11:06:27.909Z,27.27
2018-11-22T11:16:49.841Z,31.20
2018-11-22T11:22:12.635Z,25.43
2018-11-22T11:27:16.112Z,26.07
2018-11-22T11:32:38.889Z,26.07
2018-11-22T11:43:17.757Z,27.17
2018-11-22T11:48:40.236Z,30.50
2018-11-22T11:59:12.595Z,27.03
2018-11-22T12:04:40.481Z,27.23
2018-11-22T12:14:58.742Z,27.73
2018-11-22T12:20:21.918Z,34.80
2018-11-22T12:25:26.481Z,27.60
2018-11-22T12:31:08.666Z,27.97
2018-11-22T12:36:31.203Z,25.87
2018-11-22T12:41:53.690Z,29.47
2018-11-22T12:52:12.288Z,23.57
2018-11-22T12:57:15.711Z,27.67
2018-11-22T13:07:28.630Z,28.07
2018-11-22T13:18:13.632Z,28.73
2018-11-22T13:23:39.382Z,24.17
2018-11-22T13:29:01.844Z,26.10
2018-11-22T13:34:05.475Z,26.23
2018-11-22T13:44:37.152Z,26.67
2018-11-22T13:49:59.830Z,28.50
2018-11-22T14:00:25.374Z,24.00
2018-11-22T14:05:45.666Z,25.13
2018-11-22T14:11:14.030Z,25.70
2018-11-22T14:26:45.142Z,28.77
2018-11-22T14:36:57.616Z,25.47
2018-11-22T14:42:20.365Z,28.77
2018-11-22T14:47:23.781Z,27.00
2018-11-22T14:52:46.223Z,27.40
2018-11-22T15:03:05.206Z,26.93
2018-11-22T15:08:27.958Z,26.87
2018-11-22T15:13:31.590Z,27.00
2018-11-22T15:18:35.056Z,31.83
2018-11-22T15:23:57.824Z,26.67
2018-11-22T15:29:01.303Z,25.73
2018-11-22T15:34:23.778Z,28.73
2018-11-22T15:39:46.974Z,26.47
2018-11-22T15:44:50.222Z,27.23
2018-11-22T15:49:53.632Z,31.33
2018-11-22T15:54:57.169Z,23.73
2018-11-22T16:00:26.944Z,29.10
2018-11-22T16:05:31.074Z,26.90
2018-11-22T16:10:53.994Z,29.57
2018-11-22T16:15:57.375Z,32.50
2018-11-22T16:21:00.803Z,30.77
2018-11-22T16:26:04.193Z,32.43
2018-11-22T16:31:26.978Z,29.93
2018-11-22T16:36:30.458Z,33.33
2018-11-22T16:41:53.220Z,30.83
2018-11-22T16:46:56.720Z,31.27
2018-11-22T16:52:00.100Z,26.83
2018-11-22T16:57:03.533Z,30.17
2018-11-22T17:07:16.343Z,30.97
2018-11-22T17:12:40.193Z,28.17
2018-11-22T17:17:44.435Z,30.27
2018-11-22T17:22:48.586Z,28.23
2018-11-22T17:27:53.485Z,26.77
2018-11-22T17:32:56.834Z,29.97
2018-11-22T17:38:01.373Z,25.17
2018-11-22T17:43:05.041Z,26.77
2018-11-22T17:48:08.732Z,27.00
2018-11-22T17:53:12.665Z,28.93
2018-11-22T17:58:16.341Z,24.60
2018-11-22T18:03:20.189Z,28.70
2018-11-22T18:08:23.600Z,30.03
2018-11-22T18:13:27.218Z,28.10
2018-11-22T18:18:30.939Z,27.47
2018-11-22T18:23:34.360Z,33.03
2018-11-22T18:28:37.702Z,34.53
2018-11-22T18:34:00.241Z,33.20
2018-11-22T18:39:04.251Z,29.17
2018-11-22T18:44:07.709Z,26.90
2018-11-22T18:49:11.095Z,33.07
2018-11-22T18:54:33.664Z,28.13
2018-11-22T19:04:53.139Z,29.07
2018-11-22T19:15:07.950Z,30.67
2018-11-22T19:20:52.514Z,29.07
2018-11-22T19:26:15.055Z,28.17
2018-11-22T19:36:33.280Z,28.90
2018-11-22T19:41:37.105Z,31.20
2018-11-22T19:46:40.835Z,33.37
2018-11-22T19:51:44.335Z,29.77
2018-11-22T19:57:06.909Z,34.43
2018-11-22T20:07:20.507Z,32.97
2018-11-22T20:12:23.939Z,28.40
2018-11-22T20:17:27.497Z,31.80
2018-11-22T20:22:31.029Z,26.63
2018-11-22T20:27:34.486Z,29.70
2018-11-22T20:48:20.283Z,30.93
2018-11-22T20:53:24.689Z,34.40
2018-11-22T21:03:57.174Z,30.13
2018-11-22T21:14:09.682Z,30.63
2018-11-22T21:19:32.012Z,27.77
2018-11-22T21:24:54.889Z,28.47
2018-11-22T21:30:22.941Z,28.37
2018-11-22T21:40:38.875Z,28.47
2018-11-22T21:45:42.378Z,27.03
2018-11-22T21:50:45.752Z,30.50
2018-11-22T21:55:49.362Z,30.17
2018-11-22T22:00:52.842Z,30.27
2018-11-22T22:05:56.249Z,31.63
2018-11-22T22:16:08.711Z,35.80
2018-11-22T22:21:31.144Z,37.80
2018-11-22T22:26:53.640Z,40.23
2018-11-22T22:31:57.533Z,37.50
2018-11-22T22:37:19.987Z,30.40
2018-11-22T22:42:42.485Z,36.23
2018-11-22T22:52:56.818Z,33.30
2018-11-22T22:58:00.390Z,33.67
2018-11-22T23:03:23.035Z,32.97
2018-11-22T23:08:45.553Z,35.27
2018-11-22T23:13:49.028Z,32.00
2018-11-22T23:19:11.474Z,30.87
2018-11-22T23:24:15.067Z,32.90
2018-11-22T23:29:37.516Z,34.53
2018-11-22T23:45:06.558Z,31.50
2018-11-22T23:50:30.679Z,33.57
2018-11-22T23:55:34.244Z,40.10
